New Salem, Massachusetts
Current Conditions -  °F | °C
As of 3:52 PM on Thursday 27 Nov 2014 (Local Time) from KORE Reporting Station
NA  
Wind Chill: 24°   Ceiling: NA
Heat Index: 31°   Visibility: 10mi
Dew Point: 25°   Wind: 7mph
Humidity: 79%   Direction: 350°N
Pressure: 29.96"   Gusts: NA
Location:  42.5°N, 72.33°W
Report Text: KORE 272052Z AUTO 35006KT 10SM M01/M04 A2996 RMK AO2 SLPNO T10061039 53001 $
Loading
Personal Weather Stations






























Interactive Weather Map New forecast layout! Learn more

10-Day Weather Forecast

Advertisements
Track Severe Weather on mobile